Time;durP1;ratioP1;P1;durP2;ratioP2;P2;SDS_P1;SDS_P2;PMS_P1;PMS_P2;Temp;Humidity;BMP_temperature;BMP_pressure;BME280_temperature;BME280_humidity;BME280_pressure;Samples;Min_cycle;Max_cycle;Signal;HPM_P1;HPM_P2
2022/04/20 00:01:22;;;;;;;4.72;1.30;;;18.30;54.30;;;;;;5012177;28;20530;-62
2022/04/20 00:03:48;;;;;;;3.90;1.35;;;18.30;55.30;;;;;;5013188;28;20409;-62
2022/04/20 00:06:14;;;;;;;4.25;1.50;;;18.30;54.30;;;;;;5018908;28;20087;-61
2022/04/20 00:08:40;;;;;;;4.38;1.20;;;18.30;54.40;;;;;;5015432;28;20175;-62
2022/04/20 00:11:07;;;;;;;3.80;1.33;;;18.30;54.50;;;;;;5016380;28;20037;-62
2022/04/20 00:13:33;;;;;;;5.75;1.42;;;18.30;54.50;;;;;;5018379;28;20033;-61
2022/04/20 00:15:59;;;;;;;4.93;1.42;;;18.30;54.40;;;;;;5018703;28;20045;-62
2022/04/20 00:18:25;;;;;;;4.50;1.38;;;18.20;54.50;;;;;;5014599;28;20030;-61
2022/04/20 00:20:50;;;;;;;5.07;1.30;;;18.20;54.50;;;;;;5014257;28;20049;-61
2022/04/20 00:23:16;;;;;;;4.47;1.30;;;18.20;54.60;;;;;;5020189;28;20067;-61
2022/04/20 00:25:42;;;;;;;2.83;1.10;;;18.20;54.60;;;;;;5012731;28;20042;-62
2022/04/20 00:28:07;;;;;;;3.05;1.10;;;18.20;54.50;;;;;;5014612;28;20040;-62
2022/04/20 00:30:33;;;;;;;3.25;1.20;;;18.20;54.70;;;;;;5014625;28;20117;-61
2022/04/20 00:32:59;;;;;;;2.85;1.13;;;18.20;54.60;;;;;;5019873;28;20327;-61
2022/04/20 00:35:25;;;;;;;4.38;1.40;;;18.20;54.60;;;;;;5012965;28;20041;-62
2022/04/20 00:37:51;;;;;;;4.65;1.17;;;18.20;54.60;;;;;;5015158;28;20024;-61
2022/04/20 00:40:16;;;;;;;4.35;1.40;;;18.20;54.70;;;;;;5012290;28;20041;-61
2022/04/20 00:42:42;;;;;;;4.25;1.40;;;18.20;54.70;;;;;;5022132;28;22009;-62
2022/04/20 00:45:08;;;;;;;3.63;1.20;;;18.20;54.60;;;;;;5019548;28;20406;-61
2022/04/20 00:47:44;;;;;;;3.45;1.00;;;18.20;54.70;;;;;;5014513;28;20051;-62
2022/04/20 00:50:11;;;;;;;3.50;1.23;;;18.10;54.60;;;;;;5011497;28;20078;-62
2022/04/20 00:52:37;;;;;;;3.00;1.13;;;18.20;54.70;;;;;;5010812;28;20037;-62
2022/04/20 00:55:03;;;;;;;2.42;1.08;;;18.20;54.70;;;;;;5018942;28;20029;-61
2022/04/20 00:57:29;;;;;;;4.18;1.30;;;18.10;54.70;;;;;;5015279;28;20125;-62
2022/04/20 00:59:56;;;;;;;5.25;1.20;;;18.10;54.70;;;;;;5014323;28;20120;-61
2022/04/20 01:02:22;;;;;;;4.35;1.20;;;18.10;54.70;;;;;;5014998;28;20025;-62
2022/04/20 01:04:48;;;;;;;5.32;1.35;;;18.10;54.70;;;;;;5012096;28;20045;-61
2022/04/20 01:07:15;;;;;;;3.83;1.17;;;18.10;54.70;;;;;;5016161;28;20506;-61
2022/04/20 01:09:41;;;;;;;3.60;1.20;;;18.10;54.80;;;;;;5018989;28;20037;-61
2022/04/20 01:12:07;;;;;;;3.97;1.27;;;18.10;54.80;;;;;;5016672;28;20025;-62
2022/04/20 01:14:33;;;;;;;3.83;1.30;;;18.10;54.90;;;;;;5021753;28;20037;-61
2022/04/20 01:16:59;;;;;;;4.38;1.30;;;18.10;54.80;;;;;;5020860;28;20025;-61
2022/04/20 01:19:35;;;;;;;4.07;1.20;;;18.10;54.90;;;;;;5013801;28;20034;-61
2022/04/20 01:22:01;;;;;;;5.53;1.23;;;18.10;54.90;;;;;;5014078;28;20121;-62
2022/04/20 01:24:27;;;;;;;4.93;1.40;;;18.00;54.80;;;;;;5018010;28;20061;-61
2022/04/20 01:26:53;;;;;;;3.33;1.20;;;18.10;54.90;;;;;;5021117;28;20048;-61
2022/04/20 01:29:19;;;;;;;5.97;1.35;;;18.10;54.90;;;;;;5027821;28;20036;-61
2022/04/20 01:31:44;;;;;;;6.40;1.50;;;18.10;54.90;;;;;;5026847;28;20034;-61
2022/04/20 01:34:10;;;;;;;3.38;1.30;;;18.00;54.80;;;;;;5020966;28;20025;-61
2022/04/20 01:36:36;;;;;;;4.35;1.20;;;18.00;54.80;;;;;;5022096;28;20084;-61
2022/04/20 01:39:02;;;;;;;3.60;1.50;;;18.00;54.80;;;;;;5018841;28;20029;-61
2022/04/20 01:41:27;;;;;;;3.85;1.27;;;18.00;54.90;;;;;;5021351;28;20037;-62
2022/04/20 01:43:53;;;;;;;3.60;1.30;;;18.00;54.90;;;;;;5017965;28;20041;-61
2022/04/20 01:46:18;;;;;;;4.20;1.38;;;18.00;54.90;;;;;;5013556;28;20061;-62
2022/04/20 01:48:44;;;;;;;4.75;1.27;;;18.00;54.90;;;;;;5019549;28;20026;-61
2022/04/20 01:53:54;;;;;;;6.07;1.40;;;18.00;55.00;;;;;;5019301;28;20130;-61
2022/04/20 01:56:20;;;;;;;5.10;1.17;;;18.00;54.90;;;;;;5020021;28;20057;-62
2022/04/20 01:58:45;;;;;;;3.85;1.30;;;18.00;56.10;;;;;;5013920;28;20454;-62
2022/04/20 02:03:55;;;;;;;4.68;1.30;;;18.00;55.10;;;;;;5020049;28;20467;-61
2022/04/20 02:06:21;;;;;;;4.97;1.58;;;18.00;55.10;;;;;;5020941;28;20037;-61
2022/04/20 02:08:47;;;;;;;3.92;1.10;;;17.90;55.00;;;;;;5020779;28;20486;-61
2022/04/20 02:11:12;;;;;;;3.80;1.30;;;17.90;55.00;;;;;;5016458;28;20068;-61
2022/04/20 02:13:38;;;;;;;4.18;1.20;;;17.90;55.10;;;;;;5019951;28;20034;-61
2022/04/20 02:16:04;;;;;;;5.80;1.30;;;17.90;55.10;;;;;;5019033;28;20026;-61
2022/04/20 02:18:31;;;;;;;3.38;1.20;;;17.90;55.10;;;;;;5021887;28;20112;-61
2022/04/20 02:20:56;;;;;;;3.90;1.35;;;17.90;55.20;;;;;;5020854;28;20045;-62
2022/04/20 02:23:22;;;;;;;4.15;1.33;;;17.90;55.20;;;;;;5015574;28;20029;-61
2022/04/20 02:25:48;;;;;;;3.85;1.27;;;17.90;55.20;;;;;;5016056;28;20037;-61
2022/04/20 02:28:13;;;;;;;5.43;1.42;;;17.90;55.30;;;;;;5017143;28;20084;-61
2022/04/20 02:30:39;;;;;;;3.83;1.20;;;17.90;55.30;;;;;;5021000;28;20042;-61
2022/04/20 02:33:05;;;;;;;2.50;1.10;;;17.90;55.30;;;;;;5014391;28;20446;-61
2022/04/20 02:35:31;;;;;;;3.53;1.17;;;17.80;55.30;;;;;;5014172;28;20030;-61
2022/04/20 02:37:56;;;;;;;4.40;1.30;;;17.80;55.20;;;;;;5014630;28;20025;-61
2022/04/20 02:40:22;;;;;;;4.60;1.30;;;17.80;55.30;;;;;;5016998;28;20049;-61
2022/04/20 02:42:48;;;;;;;4.22;1.38;;;17.90;55.30;;;;;;5021300;28;20112;-62
2022/04/20 02:45:16;;;;;;;2.63;1.00;;;17.80;55.30;;;;;;5018333;28;20033;-61
2022/04/20 02:47:41;;;;;;;3.40;1.20;;;17.80;55.30;;;;;;5015345;28;20056;-61
2022/04/20 02:50:07;;;;;;;2.67;1.00;;;17.80;55.30;;;;;;5017846;28;20406;-62
2022/04/20 02:52:33;;;;;;;4.25;1.30;;;17.80;55.30;;;;;;5014890;28;20026;-61
2022/04/20 02:54:59;;;;;;;4.60;1.40;;;17.80;55.40;;;;;;5016166;28;20030;-62
2022/04/20 02:57:25;;;;;;;3.97;1.17;;;17.80;55.40;;;;;;5021549;28;20033;-61
2022/04/20 02:59:51;;;;;;;3.35;1.23;;;17.80;55.50;;;;;;5019419;28;20582;-61
2022/04/20 03:02:17;;;;;;;3.17;1.20;;;17.80;55.50;;;;;;5013121;28;20120;-62
2022/04/20 03:04:43;;;;;;;4.95;1.38;;;17.80;55.50;;;;;;5012139;28;20633;-62
2022/04/20 03:07:08;;;;;;;4.80;1.20;;;17.80;55.50;;;;;;5014855;28;20048;-61
2022/04/20 03:09:34;;;;;;;2.67;1.10;;;17.80;55.50;;;;;;5018189;28;20113;-62
2022/04/20 03:11:59;;;;;;;3.75;1.17;;;17.80;55.50;;;;;;5016077;28;20041;-61
2022/04/20 03:14:25;;;;;;;3.97;1.35;;;17.70;55.50;;;;;;5015229;28;20080;-61
2022/04/20 03:16:51;;;;;;;5.03;1.45;;;17.80;55.50;;;;;;5015259;28;20029;-61
2022/04/20 03:19:16;;;;;;;4.22;1.10;;;17.80;55.50;;;;;;5022157;28;20113;-62
2022/04/20 03:21:42;;;;;;;2.80;1.08;;;17.80;55.50;;;;;;5019915;28;20117;-61
2022/04/20 03:24:08;;;;;;;4.38;1.23;;;17.70;55.60;;;;;;5016367;28;20032;-61
2022/04/20 03:26:33;;;;;;;3.85;1.20;;;17.70;55.60;;;;;;5015801;28;20026;-61
2022/04/20 03:28:59;;;;;;;4.15;1.00;;;17.80;55.70;;;;;;5016745;28;20051;-61
2022/04/20 03:31:24;;;;;;;3.70;1.15;;;17.70;55.60;;;;;;5014445;28;20491;-61
2022/04/20 03:33:50;;;;;;;4.55;1.30;;;17.70;55.60;;;;;;5020158;28;20030;-61
2022/04/20 03:36:16;;;;;;;3.25;1.20;;;17.70;55.60;;;;;;5016717;28;20028;-61
2022/04/20 03:38:42;;;;;;;3.85;1.33;;;17.70;55.60;;;;;;5017172;28;20044;-61
2022/04/20 03:41:07;;;;;;;4.30;1.30;;;17.70;55.60;;;;;;5020529;28;20049;-61
2022/04/20 03:43:33;;;;;;;4.03;1.15;;;17.70;55.60;;;;;;5013866;28;20036;-61
2022/04/20 03:45:58;;;;;;;2.78;1.20;;;17.70;55.60;;;;;;5020784;28;20053;-61
2022/04/20 03:48:24;;;;;;;4.55;1.50;;;17.70;55.60;;;;;;5018654;28;20056;-61
2022/04/20 03:50:50;;;;;;;5.40;1.50;;;17.70;55.70;;;;;;5018190;28;20033;-61
2022/04/20 03:53:16;;;;;;;3.20;1.20;;;17.70;55.70;;;;;;5018261;28;20029;-61
2022/04/20 03:55:43;;;;;;;3.10;1.20;;;17.70;55.60;;;;;;5013988;28;20129;-62
2022/04/20 03:58:08;;;;;;;4.90;1.20;;;17.70;55.60;;;;;;5019058;28;20041;-61
2022/04/20 04:00:34;;;;;;;4.03;1.20;;;17.70;55.70;;;;;;5012767;28;20034;-61
2022/04/20 04:02:59;;;;;;;4.18;1.40;;;17.60;55.70;;;;;;5012730;28;20096;-61
2022/04/20 04:05:25;;;;;;;4.00;1.20;;;17.60;55.70;;;;;;5013965;28;20033;-61
2022/04/20 04:07:51;;;;;;;2.90;1.20;;;17.60;55.70;;;;;;5012488;28;20110;-61
2022/04/20 04:10:17;;;;;;;3.97;1.00;;;17.60;55.70;;;;;;5017078;28;20038;-61
2022/04/20 04:12:42;;;;;;;3.72;1.40;;;17.70;55.70;;;;;;5013894;28;20033;-61
2022/04/20 04:15:08;;;;;;;3.53;1.02;;;17.70;55.90;;;;;;5016911;28;20091;-61
2022/04/20 04:17:34;;;;;;;3.75;1.13;;;17.60;55.80;;;;;;5016568;28;20021;-61
2022/04/20 04:20:00;;;;;;;3.45;1.20;;;17.60;55.80;;;;;;5010807;28;20038;-61
2022/04/20 04:22:26;;;;;;;4.47;1.60;;;17.60;55.80;;;;;;5012420;28;20102;-61
2022/04/20 04:24:51;;;;;;;2.95;1.10;;;17.60;55.80;;;;;;5014645;28;20041;-61
2022/04/20 04:27:17;;;;;;;3.50;1.27;;;17.60;55.80;;;;;;5016141;28;20029;-61
2022/04/20 04:29:43;;;;;;;2.50;1.02;;;17.60;55.80;;;;;;5016171;28;20148;-61
2022/04/20 04:32:08;;;;;;;3.05;1.30;;;17.60;55.80;;;;;;5018571;28;20057;-61
2022/04/20 04:34:34;;;;;;;4.60;1.38;;;17.60;55.80;;;;;;5020559;28;20030;-61
2022/04/20 04:37:00;;;;;;;1.95;1.10;;;17.60;55.90;;;;;;5021182;28;20109;-61
2022/04/20 04:39:28;;;;;;;3.63;1.33;;;17.60;55.90;;;;;;5018244;28;20083;-62
2022/04/20 04:41:56;;;;;;;4.85;1.30;;;17.60;55.90;;;;;;5021718;28;20060;-61
2022/04/20 04:44:22;;;;;;;4.70;1.45;;;17.60;55.90;;;;;;5017194;28;20088;-61
2022/04/20 04:49:32;;;;;;;3.57;1.27;;;17.60;55.90;;;;;;5024129;28;20044;-61
2022/04/20 04:51:59;;;;;;;3.67;1.30;;;17.60;56.00;;;;;;5021587;28;20401;-61
2022/04/20 04:54:25;;;;;;;2.55;1.17;;;17.60;55.90;;;;;;5018627;28;20675;-61
2022/04/20 04:56:50;;;;;;;3.80;1.20;;;17.60;55.90;;;;;;5018375;28;20104;-61
2022/04/20 04:59:16;;;;;;;5.40;1.45;;;17.60;56.00;;;;;;5022279;28;20041;-61
2022/04/20 05:01:42;;;;;;;4.07;1.25;;;17.60;56.00;;;;;;5022932;28;20633;-61
2022/04/20 05:04:08;;;;;;;3.83;1.20;;;17.60;56.10;;;;;;5022190;28;20049;-62
2022/04/20 05:06:34;;;;;;;4.43;1.50;;;17.60;56.00;;;;;;5019108;28;20170;-62
2022/04/20 05:08:59;;;;;;;3.28;1.10;;;17.60;56.00;;;;;;5018321;28;20029;-62
2022/04/20 05:11:25;;;;;;;3.17;1.25;;;17.60;56.10;;;;;;5014407;28;20038;-62
2022/04/20 05:13:51;;;;;;;4.97;1.40;;;17.60;56.40;;;;;;5019185;28;20026;-62
2022/04/20 05:16:17;;;;;;;4.90;1.45;;;17.60;56.50;;;;;;5019862;28;20035;-62
2022/04/20 05:18:42;;;;;;;3.20;1.30;;;17.60;56.60;;;;;;5023328;28;20402;-62
2022/04/20 05:21:08;;;;;;;5.78;1.50;;;17.60;56.50;;;;;;5021195;28;20048;-62
2022/04/20 05:23:34;;;;;;;7.75;1.80;;;17.60;56.40;;;;;;5019832;28;20026;-62
2022/04/20 05:25:59;;;;;;;11.38;1.88;;;17.70;57.40;;;;;;5019952;28;20033;-62
2022/04/20 05:28:25;;;;;;;4.05;1.55;;;17.70;58.70;;;;;;5026178;28;20021;-62
2022/04/20 05:30:50;;;;;;;6.53;1.50;;;17.70;59.60;;;;;;5022147;28;20112;-62
2022/04/20 05:33:16;;;;;;;5.15;1.40;;;17.70;58.50;;;;;;5028475;28;20108;-62
2022/04/20 05:35:42;;;;;;;6.63;1.52;;;17.70;57.70;;;;;;5019211;28;20053;-61
2022/04/20 05:43:36;;;;;;;7.40;1.67;;;17.70;58.10;;;;;;5017833;28;20093;-62
2022/04/20 05:46:03;;;;;;;10.18;1.88;;;17.70;58.30;;;;;;5018322;28;20046;-61
2022/04/20 05:48:28;;;;;;;4.32;1.60;;;17.60;58.30;;;;;;5015511;28;20433;-61
2022/04/20 05:50:54;;;;;;;9.23;1.80;;;17.70;58.40;;;;;;5020373;28;20048;-62
2022/04/20 05:53:20;;;;;;;6.65;2.00;;;17.60;58.50;;;;;;5019635;28;20030;-62
2022/04/20 05:55:45;;;;;;;9.05;1.80;;;17.70;58.50;;;;;;5012479;28;20025;-61
2022/04/20 05:58:11;;;;;;;8.45;1.83;;;17.60;58.60;;;;;;5024976;28;20536;-62
2022/04/20 06:00:36;;;;;;;6.15;1.65;;;17.60;58.70;;;;;;5025761;28;20041;-61
2022/04/20 06:03:02;;;;;;;8.68;1.80;;;17.60;58.50;;;;;;5019933;28;20017;-61
2022/04/20 06:05:28;;;;;;;5.63;1.70;;;17.60;58.60;;;;;;5014849;28;20030;-61
2022/04/20 06:07:54;;;;;;;7.13;1.83;;;17.50;58.40;;;;;;5015853;28;20398;-61
2022/04/20 06:10:20;;;;;;;4.63;1.95;;;17.60;58.40;;;;;;5019770;28;20037;-62
2022/04/20 06:12:46;;;;;;;4.32;1.42;;;17.60;58.50;;;;;;5019803;28;20461;-62
2022/04/20 06:15:11;;;;;;;6.63;1.67;;;17.50;58.40;;;;;;5021915;28;20044;-61
2022/04/20 06:17:37;;;;;;;8.57;2.10;;;17.50;58.60;;;;;;5026985;28;20029;-62
2022/04/20 06:20:03;;;;;;;7.40;1.80;;;17.60;58.30;;;;;;5019460;28;20030;-62
2022/04/20 06:22:30;;;;;;;8.30;1.80;;;17.60;58.50;;;;;;5016660;28;20044;-62
2022/04/20 06:24:56;;;;;;;5.03;1.80;;;17.50;58.40;;;;;;5013819;28;20033;-62
2022/04/20 06:27:27;;;;;;;7.25;2.00;;;17.50;58.30;;;;;;5024075;28;20026;-62
2022/04/20 06:29:53;;;;;;;7.15;1.90;;;17.50;59.50;;;;;;5021733;28;20042;-61
2022/04/20 06:32:19;;;;;;;7.93;1.90;;;17.50;58.10;;;;;;5014388;28;20493;-62
2022/04/20 06:34:44;;;;;;;8.68;1.90;;;17.50;58.10;;;;;;5019142;28;20554;-61
2022/04/20 06:37:14;;;;;;;5.70;1.88;;;17.50;58.00;;;;;;5017213;28;20050;-61
2022/04/20 06:39:39;;;;;;;6.45;1.90;;;17.50;58.30;;;;;;5021253;28;20554;-62
2022/04/20 06:42:07;;;;;;;6.00;1.98;;;17.50;58.30;;;;;;5030465;28;20167;-62
2022/04/20 06:44:33;;;;;;;6.10;2.00;;;17.50;58.20;;;;;;5025346;28;20033;-62
2022/04/20 06:46:59;;;;;;;5.72;2.00;;;17.50;58.30;;;;;;5017933;28;20057;-62
2022/04/20 06:49:25;;;;;;;6.80;1.90;;;17.50;58.10;;;;;;5018622;28;20030;-62
2022/04/20 07:00:03;;;;;;;5.57;2.00;;;17.50;58.20;;;;;;5019209;28;20133;-61
2022/04/20 07:02:29;;;;;;;7.88;1.85;;;17.50;58.30;;;;;;5019868;28;20059;-62
2022/04/20 07:04:55;;;;;;;4.60;1.95;;;17.50;58.00;;;;;;5012409;28;20029;-62
2022/04/20 07:07:21;;;;;;;6.32;1.90;;;17.50;58.30;;;;;;5016208;28;20034;-63
2022/04/20 07:09:46;;;;;;;5.97;1.90;;;17.50;58.10;;;;;;5018431;28;20029;-61
2022/04/20 07:12:12;;;;;;;7.57;2.00;;;17.50;58.10;;;;;;5023777;28;20034;-62
2022/04/20 07:14:38;;;;;;;7.32;2.25;;;17.50;58.00;;;;;;5016736;28;20436;-62
2022/04/20 07:17:06;;;;;;;5.05;1.80;;;17.50;58.10;;;;;;5016352;28;20040;-61
2022/04/20 07:19:31;;;;;;;6.22;1.95;;;17.50;58.00;;;;;;5019650;28;20066;-62
2022/04/20 07:21:57;;;;;;;5.85;2.10;;;17.50;58.30;;;;;;5017006;28;20440;-62
2022/04/20 07:24:23;;;;;;;6.10;1.98;;;17.50;58.00;;;;;;5027468;28;20742;-61
2022/04/20 07:26:48;;;;;;;8.05;2.00;;;17.50;58.00;;;;;;5024013;28;20028;-61
2022/04/20 07:29:14;;;;;;;6.22;2.05;;;17.50;57.90;;;;;;5018329;28;20017;-62
2022/04/20 07:31:39;;;;;;;5.68;1.80;;;17.50;57.90;;;;;;5016126;28;20025;-62
2022/04/20 07:34:05;;;;;;;6.07;2.00;;;17.60;57.90;;;;;;5024142;28;20040;-62
2022/04/20 07:36:31;;;;;;;5.28;1.95;;;17.50;57.90;;;;;;5022768;28;20057;-61
2022/04/20 07:38:56;;;;;;;5.82;2.10;;;17.50;58.00;;;;;;5019379;28;20072;-62
2022/04/20 07:41:22;;;;;;;3.35;1.90;;;17.60;58.00;;;;;;5014092;28;20041;-62
2022/04/20 07:43:49;;;;;;;5.15;1.88;;;17.50;58.00;;;;;;5021437;28;20506;-62
2022/04/20 07:46:17;;;;;;;5.45;2.15;;;17.50;57.80;;;;;;5024119;28;20041;-62
2022/04/20 07:48:43;;;;;;;5.28;2.17;;;17.60;58.00;;;;;;5014754;28;20029;-62
2022/04/20 07:51:09;;;;;;;5.97;1.83;;;17.60;57.90;;;;;;5025099;28;20121;-61
2022/04/20 07:53:35;;;;;;;5.50;2.00;;;17.60;57.90;;;;;;5021667;28;20029;-61
2022/04/20 07:56:00;;;;;;;6.13;2.00;;;17.50;57.80;;;;;;5013554;28;20065;-61
2022/04/20 07:58:26;;;;;;;5.20;1.88;;;17.50;57.80;;;;;;5024995;28;20112;-61
2022/04/20 08:00:53;;;;;;;4.90;1.88;;;17.60;57.80;;;;;;5022665;28;20081;-62
2022/04/20 08:03:19;;;;;;;5.70;2.08;;;17.50;57.80;;;;;;5018618;28;20037;-61
2022/04/20 08:05:49;;;;;;;7.32;2.30;;;17.60;58.00;;;;;;5022386;28;20037;-61
2022/04/20 08:08:16;;;;;;;5.43;2.08;;;17.60;57.80;;;;;;5020407;28;20021;-62
2022/04/20 08:10:42;;;;;;;5.25;2.10;;;17.60;57.70;;;;;;5022990;28;20045;-61
2022/04/20 08:15:51;;;;;;;7.10;2.13;;;17.60;57.70;;;;;;5021640;28;20544;-61
2022/04/20 08:18:17;;;;;;;5.15;1.75;;;17.60;57.60;;;;;;5029495;28;20021;-62
2022/04/20 08:20:43;;;;;;;6.35;1.80;;;17.60;57.50;;;;;;5019737;28;20116;-61
2022/04/20 08:23:08;;;;;;;5.40;2.08;;;17.60;57.50;;;;;;5018395;28;20021;-61
2022/04/20 08:25:34;;;;;;;6.85;2.10;;;17.70;57.60;;;;;;5024391;28;20034;-62
2022/04/20 08:28:00;;;;;;;5.43;2.00;;;17.70;57.70;;;;;;5017331;28;20032;-62
2022/04/20 08:30:26;;;;;;;5.00;1.90;;;17.70;57.80;;;;;;5017729;28;20434;-61
2022/04/20 08:32:52;;;;;;;4.82;1.98;;;17.70;57.80;;;;;;5020699;28;20037;-61
2022/04/20 08:35:19;;;;;;;3.55;1.70;;;17.70;57.90;;;;;;5014263;28;20122;-62
2022/04/20 08:37:45;;;;;;;6.00;2.00;;;17.70;57.80;;;;;;5017510;28;20045;-61
2022/04/20 08:40:12;;;;;;;5.40;1.95;;;17.80;57.90;;;;;;5014075;28;20414;-62
2022/04/20 08:42:37;;;;;;;4.03;1.85;;;17.80;57.80;;;;;;5023275;28;20061;-61
2022/04/20 08:45:04;;;;;;;4.60;1.80;;;17.80;57.80;;;;;;5024824;28;20596;-61
2022/04/20 08:47:34;;;;;;;6.55;2.00;;;17.80;57.80;;;;;;5016861;28;20127;-61
2022/04/20 08:50:01;;;;;;;4.60;1.88;;;17.80;57.90;;;;;;5020918;28;20125;-62
2022/04/20 08:52:38;;;;;;;4.88;2.00;;;17.80;57.80;;;;;;5018301;28;20038;-62
2022/04/20 08:55:05;;;;;;;5.55;1.88;;;17.80;57.70;;;;;;5024990;28;20057;-61
2022/04/20 08:57:32;;;;;;;4.20;1.83;;;17.80;57.70;;;;;;5025800;28;20030;-62
2022/04/20 08:59:58;;;;;;;4.90;2.00;;;17.80;57.80;;;;;;5026838;28;20528;-62
2022/04/20 09:02:24;;;;;;;4.57;1.92;;;17.80;57.70;;;;;;5019024;28;20058;-61
2022/04/20 09:04:50;;;;;;;4.75;1.88;;;17.80;57.70;;;;;;5015898;28;20467;-62
2022/04/20 09:07:16;;;;;;;4.40;1.98;;;17.80;57.60;;;;;;5020577;28;20032;-62
2022/04/20 09:09:41;;;;;;;6.25;2.08;;;17.90;57.70;;;;;;5018009;28;20030;-62
2022/04/20 09:12:14;;;;;;;4.68;1.80;;;17.90;57.60;;;;;;5012461;28;20029;-61
2022/04/20 09:14:41;;;;;;;5.28;2.10;;;17.90;57.60;;;;;;5023080;28;20108;-61
2022/04/20 09:17:13;;;;;;;4.60;1.80;;;18.00;57.60;;;;;;5012851;28;20030;-61
2022/04/20 09:19:41;;;;;;;3.45;1.70;;;18.00;58.60;;;;;;5017297;28;20546;-62
2022/04/20 09:22:24;;;;;;;6.05;2.10;;;18.00;57.50;;;;;;5024691;28;20022;-62
2022/04/20 09:25:11;;;;;;;6.10;2.00;;;18.00;57.50;;;;;;5020410;28;20037;-62
2022/04/20 09:27:40;;;;;;;3.92;1.77;;;18.00;57.40;;;;;;5018458;28;20088;-62
2022/04/20 09:30:16;;;;;;;4.85;1.90;;;18.00;57.40;;;;;;5022934;28;20026;-62
2022/04/20 09:32:43;;;;;;;4.85;1.88;;;18.00;57.50;;;;;;5019724;28;20033;-62
2022/04/20 09:35:13;;;;;;;6.03;2.10;;;18.00;57.40;;;;;;5012483;28;20037;-62
2022/04/20 09:37:40;;;;;;;5.22;1.85;;;18.00;57.40;;;;;;5016596;28;20125;-62
2022/04/20 09:40:11;;;;;;;5.40;1.80;;;18.10;57.40;;;;;;5027105;28;20049;-62
2022/04/20 09:42:37;;;;;;;5.25;2.00;;;18.10;57.40;;;;;;5029648;28;20042;-62
2022/04/20 09:45:06;;;;;;;5.30;1.98;;;18.10;57.30;;;;;;5028896;28;20108;-61
2022/04/20 09:50:21;;;;;;;5.55;2.03;;;18.10;57.30;;;;;;5023327;28;20112;-62
2022/04/20 09:52:47;;;;;;;4.22;1.90;;;18.10;57.20;;;;;;5029500;28;20071;-62
2022/04/20 09:55:15;;;;;;;4.85;1.85;;;18.10;57.20;;;;;;5025348;28;20581;-62
2022/04/20 09:57:41;;;;;;;3.13;1.60;;;18.20;57.20;;;;;;5020257;28;20100;-62
2022/04/20 10:00:11;;;;;;;4.78;1.73;;;18.20;57.10;;;;;;5021782;28;20041;-62
2022/04/20 10:02:52;;;;;;;5.25;2.20;;;18.20;57.20;;;;;;5018179;28;20088;-62
2022/04/20 10:05:20;;;;;;;6.63;2.25;;;18.20;57.10;;;;;;5014623;28;20096;-62
2022/04/20 10:07:46;;;;;;;4.50;1.90;;;18.20;57.10;;;;;;5014514;28;20061;-61
2022/04/20 10:10:12;;;;;;;5.47;1.92;;;18.20;57.10;;;;;;5027756;28;20074;-62
2022/04/20 10:12:42;;;;;;;3.30;1.63;;;18.30;57.00;;;;;;5025471;28;20022;-62
2022/04/20 10:17:54;;;;;;;6.78;2.17;;;18.30;57.10;;;;;;5021598;28;20032;-62
2022/04/20 10:20:20;;;;;;;4.63;1.90;;;18.30;57.10;;;;;;5015249;28;20049;-62
2022/04/20 10:22:47;;;;;;;5.03;1.88;;;18.30;57.20;;;;;;5023553;28;20045;-62
2022/04/20 10:25:13;;;;;;;5.20;2.00;;;18.30;58.10;;;;;;5026969;28;20038;-62
2022/04/20 10:27:57;;;;;;;6.57;2.22;;;18.40;57.20;;;;;;5025006;28;20056;-62
2022/04/20 10:30:48;;;;;;;4.07;1.90;;;18.40;57.20;;;;;;5016438;28;20045;-62
2022/04/20 10:33:19;;;;;;;4.88;1.95;;;18.40;57.20;;;;;;5015161;28;20033;-62
2022/04/20 10:35:58;;;;;;;7.60;2.30;;;18.40;57.10;;;;;;5026789;28;20025;-62
2022/04/20 10:38:25;;;;;;;4.22;1.90;;;18.40;57.10;;;;;;5015771;28;20030;-61
2022/04/20 10:41:07;;;;;;;4.10;1.88;;;18.40;57.00;;;;;;5020270;28;20029;-62
2022/04/20 10:43:38;;;;;;;4.07;2.00;;;18.50;57.10;;;;;;5011990;28;20034;-62
2022/04/20 10:46:08;;;;;;;3.97;1.80;;;18.50;57.10;;;;;;5021995;28;20044;-62
2022/04/20 10:49:02;;;;;;;4.88;1.88;;;18.50;57.10;;;;;;5020978;28;20030;-62
2022/04/20 10:51:32;;;;;;;4.82;1.80;;;18.50;57.10;;;;;;5027898;28;20037;-62
2022/04/20 10:54:29;;;;;;;4.10;1.85;;;18.50;57.10;;;;;;5025731;28;20154;-62
2022/04/20 10:57:05;;;;;;;5.45;1.90;;;18.50;57.10;;;;;;5018397;28;20025;-62
2022/04/20 10:59:32;;;;;;;3.20;1.70;;;18.50;56.90;;;;;;5023098;28;20120;-62
2022/04/20 11:02:03;;;;;;;5.10;1.90;;;18.50;57.00;;;;;;5024772;28;20052;-62
2022/04/20 11:04:33;;;;;;;5.45;2.15;;;18.50;56.90;;;;;;5017704;28;20029;-61
2022/04/20 11:06:59;;;;;;;4.28;1.88;;;18.60;56.90;;;;;;5012739;28;20037;-62
2022/04/20 11:09:46;;;;;;;5.70;2.03;;;18.60;56.90;;;;;;5019702;28;20690;-62
2022/04/20 11:21:09;;;;;;;4.97;1.70;;;18.70;57.00;;;;;;5027422;28;20135;-62
2022/04/20 11:23:54;;;;;;;3.92;1.90;;;18.70;56.80;;;;;;5021028;28;20033;-62
2022/04/20 11:26:28;;;;;;;6.63;2.40;;;18.70;57.00;;;;;;5011074;28;20041;-62
2022/04/20 11:28:55;;;;;;;5.03;2.00;;;18.80;56.90;;;;;;5018943;28;20034;-62
2022/04/20 11:31:20;;;;;;;4.65;2.00;;;18.80;56.80;;;;;;5022176;28;20025;-62
2022/04/20 11:33:46;;;;;;;4.88;1.95;;;18.70;56.90;;;;;;5022375;28;20495;-62
2022/04/20 11:36:15;;;;;;;4.82;1.98;;;18.80;56.80;;;;;;5021467;28;20037;-62
2022/04/20 11:38:42;;;;;;;5.75;2.20;;;18.80;56.80;;;;;;5022191;28;20036;-62
2022/04/20 11:41:11;;;;;;;3.60;1.77;;;18.80;56.90;;;;;;5016704;28;20034;-61
2022/04/20 11:43:39;;;;;;;5.65;2.35;;;18.80;57.80;;;;;;5014513;28;20034;-62
2022/04/20 11:46:06;;;;;;;6.32;2.28;;;18.80;56.80;;;;;;5014636;28;20403;-62
2022/04/20 11:48:38;;;;;;;5.43;2.13;;;18.80;56.90;;;;;;5014307;28;20125;-62
2022/04/20 11:51:07;;;;;;;4.63;1.90;;;18.90;56.80;;;;;;5026499;28;20028;-61
2022/04/20 11:53:42;;;;;;;5.57;1.98;;;18.90;56.80;;;;;;5015244;28;20084;-62
2022/04/20 11:56:07;;;;;;;4.22;1.90;;;18.90;56.80;;;;;;5017489;28;20312;-62
2022/04/20 11:58:34;;;;;;;5.05;2.35;;;18.90;56.70;;;;;;5014683;28;20698;-62
2022/04/20 12:01:06;;;;;;;3.40;1.98;;;18.90;56.70;;;;;;5017744;28;20415;-62
2022/04/20 12:03:33;;;;;;;3.80;1.90;;;18.90;56.70;;;;;;5024812;28;20033;-62
2022/04/20 12:06:05;;;;;;;4.28;2.00;;;19.00;56.70;;;;;;5019018;28;20034;-62
2022/04/20 12:08:40;;;;;;;5.07;2.05;;;19.00;56.60;;;;;;5021733;28;20030;-62
2022/04/20 12:11:08;;;;;;;4.65;2.00;;;19.00;56.60;;;;;;5015052;28;20021;-61
2022/04/20 12:13:33;;;;;;;5.88;2.28;;;19.00;56.50;;;;;;5015498;28;20037;-62
2022/04/20 12:16:17;;;;;;;5.00;2.00;;;19.10;56.60;;;;;;5016400;28;20026;-62
2022/04/20 12:18:44;;;;;;;5.28;2.05;;;19.10;56.60;;;;;;5024752;28;20041;-62
2022/04/20 12:21:34;;;;;;;3.47;1.75;;;19.10;56.50;;;;;;5012584;28;20406;-62
2022/04/20 12:24:00;;;;;;;4.30;2.00;;;19.10;56.50;;;;;;5024419;28;20387;-62
2022/04/20 12:26:29;;;;;;;4.85;1.95;;;19.10;56.50;;;;;;5013156;28;20045;-62
2022/04/20 12:29:02;;;;;;;5.03;2.10;;;19.20;57.60;;;;;;5015536;28;20030;-62
2022/04/20 12:31:28;;;;;;;5.57;2.17;;;19.20;56.60;;;;;;5018660;28;20028;-62
2022/04/20 12:34:01;;;;;;;6.70;2.33;;;19.20;56.40;;;;;;5022371;28;20406;-62
2022/04/20 12:36:27;;;;;;;3.13;1.83;;;19.30;56.50;;;;;;5029535;28;20037;-62
2022/04/20 12:38:53;;;;;;;6.20;2.10;;;19.30;56.40;;;;;;5022604;28;20484;-62
2022/04/20 12:41:44;;;;;;;4.72;2.03;;;19.30;56.40;;;;;;5015496;28;20473;-62
2022/04/20 12:44:35;;;;;;;3.72;1.80;;;19.30;56.30;;;;;;5020411;28;20017;-62
2022/04/20 12:47:15;;;;;;;4.47;2.13;;;19.30;56.20;;;;;;5012786;28;20048;-62
2022/04/20 12:49:43;;;;;;;4.50;1.88;;;19.40;56.40;;;;;;5024078;28;20140;-62
2022/04/20 12:52:09;;;;;;;5.72;2.20;;;19.40;56.30;;;;;;5018647;28;20026;-62
2022/04/20 12:54:35;;;;;;;4.97;1.90;;;19.40;56.20;;;;;;5023352;28;20029;-62
2022/04/20 13:02:29;;;;;;;4.15;2.10;;;19.50;56.10;;;;;;5017535;28;20076;-62
2022/04/20 13:04:55;;;;;;;4.38;2.00;;;19.50;56.00;;;;;;5015987;28;20022;-62
2022/04/20 13:07:20;;;;;;;3.85;1.80;;;19.50;56.10;;;;;;5016617;28;20092;-62
2022/04/20 13:09:46;;;;;;;4.03;2.10;;;19.50;56.00;;;;;;5017663;28;20032;-62
2022/04/20 13:12:12;;;;;;;4.35;2.00;;;19.50;55.90;;;;;;5024000;28;20030;-62
2022/04/20 13:14:38;;;;;;;4.10;1.80;;;19.50;55.90;;;;;;5017783;28;20040;-62
2022/04/20 13:17:09;;;;;;;6.53;2.28;;;19.60;55.90;;;;;;5013299;28;20076;-61
2022/04/20 13:19:38;;;;;;;4.35;2.15;;;19.60;55.90;;;;;;5019863;28;20041;-62
2022/04/20 13:22:04;;;;;;;6.75;2.10;;;19.60;55.90;;;;;;5029819;28;20042;-62
2022/04/20 13:30:00;;;;;;;3.72;1.85;;;19.70;55.80;;;;;;5027178;28;20361;-62
2022/04/20 13:32:25;;;;;;;3.70;1.80;;;19.70;55.70;;;;;;5025628;28;20037;-62
2022/04/20 13:34:52;;;;;;;4.35;2.03;;;19.80;55.70;;;;;;5014141;28;20029;-62
2022/04/20 13:37:18;;;;;;;4.07;2.00;;;19.80;55.70;;;;;;5024336;28;20498;-62
2022/04/20 13:39:44;;;;;;;5.03;2.13;;;19.80;55.70;;;;;;5026872;28;20375;-61